Time;durP1;ratioP1;P1;durP2;ratioP2;P2;SDS_P1;SDS_P2;PMS_P1;PMS_P2;Temp;Humidity;BMP_temperature;BMP_pressure;BME280_temperature;BME280_humidity;BME280_pressure;Samples;Min_cycle;Max_cycle;Signal;HPM_P1;HPM_P2
2022/08/21 00:01:41;;;;;;;;;;;;;;;17.02;100.00;101615.69;5112366;28;19924;-31
2022/08/21 00:04:10;;;;;;;;;;;;;;;16.99;100.00;101623.94;5110136;28;19934;-32
2022/08/21 00:06:41;;;;;;;;;;;;;;;16.96;100.00;101624.63;5112199;28;20284;-31
2022/08/21 00:09:10;;;;;;;;;;;;;;;16.96;100.00;101618.97;5112469;28;19928;-33
2022/08/21 00:11:38;;;;;;;;;;;;;;;16.95;100.00;101626.63;5111183;28;19924;-33
2022/08/21 00:14:07;;;;;;;;;;;;;;;16.95;100.00;101620.13;5112278;28;19924;-39
2022/08/21 00:16:34;;;;;;;;;;;;;;;16.92;100.00;101626.41;5112065;28;19928;-33
2022/08/21 00:19:02;;;;;;;;;;;;;;;16.86;100.00;101623.72;5111045;28;20010;-31
2022/08/21 00:21:30;;;;;;;;;;;;;;;16.82;100.00;101619.88;5114848;28;19924;-31
2022/08/21 00:23:58;;;;;;;;;;;;;;;16.77;100.00;101622.88;5115762;28;19934;-40
2022/08/21 00:26:27;;;;;;;;;;;;;;;16.76;100.00;101614.72;5114826;28;19924;-37
2022/08/21 00:28:54;;;;;;;;;;;;;;;16.71;100.00;101617.69;5115881;28;19923;-34
2022/08/21 00:31:25;;;;;;;;;;;;;;;16.68;100.00;101623.94;5115843;28;19993;-37
2022/08/21 00:33:52;;;;;;;;;;;;;;;16.65;100.00;101616.97;5114717;28;19963;-38
2022/08/21 00:36:27;;;;;;;;;;;;;;;16.63;100.00;101615.59;5104521;28;19924;-34
2022/08/21 00:38:54;;;;;;;;;;;;;;;16.61;100.00;101613.09;5114936;28;20555;-34
2022/08/21 00:41:23;;;;;;;;;;;;;;;16.59;100.00;101617.38;5114530;28;19924;-31
2022/08/21 00:44:06;;;;;;;;;;;;;;;16.63;100.00;101607.13;5113171;28;20431;-34
2022/08/21 00:46:34;;;;;;;;;;;;;;;16.79;100.00;101609.25;5114731;28;19924;-37
2022/08/21 00:49:02;;;;;;;;;;;;;;;17.03;100.00;101613.69;5115225;28;19931;-33
2022/08/21 00:51:43;;;;;;;;;;;;;;;17.27;100.00;101613.31;5111614;28;20296;-35
2022/08/21 00:54:11;;;;;;;;;;;;;;;17.47;100.00;101605.06;5114041;28;19930;-39
2022/08/21 00:56:46;;;;;;;;;;;;;;;17.64;100.00;101606.28;5112460;28;19923;-31
2022/08/21 00:59:16;;;;;;;;;;;;;;;17.79;100.00;101595.38;5115216;28;19975;-39
2022/08/21 01:01:44;;;;;;;;;;;;;;;17.93;100.00;101600.06;5113544;28;19927;-33
2022/08/21 01:04:12;;;;;;;;;;;;;;;18.02;100.00;101603.69;5113770;28;19942;-32
2022/08/21 01:06:39;;;;;;;;;;;;;;;18.09;100.00;101596.41;5114971;28;19928;-32
2022/08/21 01:09:07;;;;;;;;;;;;;;;18.13;100.00;101597.41;5114471;28;19924;-41
2022/08/21 01:11:35;;;;;;;;;;;;;;;18.16;100.00;101595.91;5111788;28;20269;-32
2022/08/21 01:14:02;;;;;;;;;;;;;;;18.23;100.00;101605.53;5114292;28;19924;-33
2022/08/21 01:16:33;;;;;;;;;;;;;;;18.29;100.00;101594.91;5115000;27;19924;-34
2022/08/21 01:19:00;;;;;;;;;;;;;;;18.34;100.00;101596.72;5114798;28;19999;-34
2022/08/21 01:21:29;;;;;;;;;;;;;;;18.40;100.00;101595.38;5113700;28;19924;-33
2022/08/21 01:23:57;;;;;;;;;;;;;;;18.45;100.00;101595.22;5114793;28;19924;-36
2022/08/21 01:26:27;;;;;;;;;;;;;;;18.49;100.00;101588.56;5114746;28;19930;-37
2022/08/21 01:29:03;;;;;;;;;;;;;;;18.54;100.00;101594.03;5114014;28;19924;-35
2022/08/21 01:31:32;;;;;;;;;;;;;;;18.58;100.00;101582.91;5113829;28;19931;-31
2022/08/21 01:34:00;;;;;;;;;;;;;;;18.61;100.00;101590.72;5114390;28;20018;-37
2022/08/21 01:36:28;;;;;;;;;;;;;;;18.63;100.00;101588.38;5113672;28;20026;-32
2022/08/21 01:38:57;;;;;;;;;;;;;;;18.64;100.00;101581.56;5114382;28;19924;-40
2022/08/21 01:41:25;;;;;;;;;;;;;;;18.64;100.00;101575.91;5113199;28;19930;-40
2022/08/21 01:43:52;;;;;;;;;;;;;;;18.63;100.00;101577.06;5113443;28;19931;-35
2022/08/21 01:46:20;;;;;;;;;;;;;;;18.63;100.00;101579.91;5113850;28;20301;-42
2022/08/21 01:48:48;;;;;;;;;;;;;;;18.65;100.00;101579.56;5113560;27;20328;-37
2022/08/21 01:51:15;;;;;;;;;;;;;;;18.67;100.00;101580.06;5113346;28;20018;-32
2022/08/21 01:53:43;;;;;;;;;;;;;;;18.68;100.00;101578.91;5113630;28;20300;-32
2022/08/21 01:56:13;;;;;;;;;;;;;;;18.67;100.00;101568.75;5112094;28;20308;-32
2022/08/21 01:58:42;;;;;;;;;;;;;;;18.67;100.00;101575.25;5114032;28;19954;-34
2022/08/21 02:01:10;;;;;;;;;;;;;;;18.69;100.00;101572.09;5113877;28;19930;-31
2022/08/21 02:03:38;;;;;;;;;;;;;;;18.70;100.00;101565.25;5113124;28;19928;-31
2022/08/21 02:06:07;;;;;;;;;;;;;;;18.69;100.00;101564.44;5114017;28;19924;-38
2022/08/21 02:08:35;;;;;;;;;;;;;;;18.70;100.00;101563.25;5113787;28;19928;-33
2022/08/21 02:11:03;;;;;;;;;;;;;;;18.71;100.00;101556.44;5113011;28;19931;-31
2022/08/21 02:13:32;;;;;;;;;;;;;;;18.71;100.00;101556.44;5113670;28;19950;-32
2022/08/21 02:15:59;;;;;;;;;;;;;;;18.72;100.00;101554.44;5113461;28;20430;-33
2022/08/21 02:18:27;;;;;;;;;;;;;;;18.72;100.00;101555.28;5112946;28;19930;-32
2022/08/21 02:20:55;;;;;;;;;;;;;;;18.70;100.00;101546.31;5113567;28;19923;-35
2022/08/21 02:23:23;;;;;;;;;;;;;;;18.69;100.00;101546.63;5112605;28;20392;-35
2022/08/21 02:25:54;;;;;;;;;;;;;;;18.68;100.00;101551.47;5110800;28;19924;-31
2022/08/21 02:28:21;;;;;;;;;;;;;;;18.68;100.00;101550.63;5111405;28;19930;-39
2022/08/21 02:30:51;;;;;;;;;;;;;;;18.67;100.00;101549.78;5111891;28;19927;-36
2022/08/21 02:33:19;;;;;;;;;;;;;;;18.67;100.00;101543.31;5110976;28;20051;-39
2022/08/21 02:35:47;;;;;;;;;;;;;;;18.66;100.00;101542.47;5111707;28;20409;-39
2022/08/21 02:38:17;;;;;;;;;;;;;;;18.65;100.00;101540.81;5112342;28;19950;-33
2022/08/21 02:40:47;;;;;;;;;;;;;;;18.64;100.00;101539.16;5112184;28;19924;-39
2022/08/21 02:43:18;;;;;;;;;;;;;;;18.64;100.00;101532.66;5112704;28;19966;-32
2022/08/21 02:45:46;;;;;;;;;;;;;;;18.64;100.00;101533.50;5101165;28;20296;-31
2022/08/21 02:48:17;;;;;;;;;;;;;;;18.65;100.00;101535.16;5113114;28;19927;-38
2022/08/21 02:50:47;;;;;;;;;;;;;;;18.65;100.00;101529.50;5112312;28;19924;-32
2022/08/21 02:53:16;;;;;;;;;;;;;;;18.65;100.00;101528.69;5108830;28;19924;-34
2022/08/21 02:55:45;;;;;;;;;;;;;;;18.66;100.00;101528.34;5113079;28;20363;-36
2022/08/21 02:58:13;;;;;;;;;;;;;;;18.68;100.00;101525.19;5112901;28;20355;-31
2022/08/21 03:00:41;;;;;;;;;;;;;;;18.66;100.00;101528.34;5110958;28;19980;-41
2022/08/21 03:03:08;;;;;;;;;;;;;;;18.64;100.00;101532.66;5113419;28;19934;-36
2022/08/21 03:05:38;;;;;;;;;;;;;;;18.43;100.00;101532.53;5112706;28;19924;-31
2022/08/21 03:08:09;;;;;;;;;;;;;;;18.19;100.00;101528.25;5112176;28;19927;-33
2022/08/21 03:10:37;;;;;;;;;;;;;;;18.00;100.00;101530.59;5110550;28;20273;-31
2022/08/21 03:13:04;;;;;;;;;;;;;;;17.85;100.00;101533.94;5112697;28;19935;-32
2022/08/21 03:15:32;;;;;;;;;;;;;;;17.69;100.00;101524.28;5111843;28;19924;-33
2022/08/21 03:18:00;;;;;;;;;;;;;;;17.57;100.00;101519.28;5112678;28;19924;-31
2022/08/21 03:20:28;;;;;;;;;;;;;;;17.48;100.00;101522.09;5111525;28;19947;-34
2022/08/21 03:22:57;;;;;;;;;;;;;;;17.41;100.00;101513.25;5110701;28;19931;-32
2022/08/21 03:25:26;;;;;;;;;;;;;;;17.34;100.00;101517.75;5112440;28;19947;-36
2022/08/21 03:28:09;;;;;;;;;;;;;;;17.29;100.00;101515.06;5109996;28;19923;-32
2022/08/21 03:30:39;;;;;;;;;;;;;;;17.26;100.00;101510.09;5109795;28;20004;-34
2022/08/21 03:33:07;;;;;;;;;;;;;;;17.22;100.00;101513.56;5109169;28;19923;-32
2022/08/21 03:35:34;;;;;;;;;;;;;;;17.20;100.00;101512.22;5109358;28;19924;-38
2022/08/21 03:38:03;;;;;;;;;;;;;;;17.16;100.00;101506.44;5110813;28;19934;-32
2022/08/21 03:40:31;;;;;;;;;;;;;;;17.13;100.00;101495.81;5110566;28;20009;-40
2022/08/21 03:42:59;;;;;;;;;;;;;;;17.08;100.00;101504.41;5110010;28;19924;-31
2022/08/21 03:45:27;;;;;;;;;;;;;;;17.06;100.00;101505.88;5112137;28;19923;-36
2022/08/21 03:47:57;;;;;;;;;;;;;;;17.04;100.00;101496.91;5112541;28;19924;-34
2022/08/21 03:50:25;;;;;;;;;;;;;;;17.00;100.00;101499.56;5110367;28;19931;-36
2022/08/21 03:52:53;;;;;;;;;;;;;;;16.99;100.00;101508.34;5112320;28;19959;-37
2022/08/21 03:55:22;;;;;;;;;;;;;;;16.96;100.00;101503.38;5113843;28;19928;-39
2022/08/21 03:57:49;;;;;;;;;;;;;;;16.95;100.00;101502.56;5115531;28;19924;-31
2022/08/21 04:00:18;;;;;;;;;;;;;;;16.93;100.00;101509.69;5114985;28;19928;-36
2022/08/21 04:02:46;;;;;;;;;;;;;;;16.89;100.00;101498.22;5116251;28;19924;-36
2022/08/21 04:05:26;;;;;;;;;;;;;;;16.86;100.00;101501.69;5116363;28;19924;-35
2022/08/21 04:07:58;;;;;;;;;;;;;;;16.85;100.00;101505.66;5115427;28;19924;-37
2022/08/21 04:10:28;;;;;;;;;;;;;;;16.83;100.00;101507.97;5115216;28;19925;-31
2022/08/21 04:12:56;;;;;;;;;;;;;;;16.79;100.00;101507.78;5116065;28;20410;-37
2022/08/21 04:15:25;;;;;;;;;;;;;;;16.73;100.00;101517.56;5115937;28;19924;-38
2022/08/21 04:17:54;;;;;;;;;;;;;;;16.66;100.00;101514.38;5115185;28;19928;-32
2022/08/21 04:20:22;;;;;;;;;;;;;;;16.65;100.00;101520.31;5115842;27;20293;-32
2022/08/21 04:22:51;;;;;;;;;;;;;;;16.61;100.00;101516.44;5114446;28;19934;-32
2022/08/21 04:25:19;;;;;;;;;;;;;;;16.58;100.00;101517.13;5115013;27;19932;-36
2022/08/21 04:27:48;;;;;;;;;;;;;;;16.54;100.00;101517.75;5115596;28;20458;-32
2022/08/21 04:30:16;;;;;;;;;;;;;;;16.52;100.00;101524.88;5115860;28;19931;-34
2022/08/21 04:32:45;;;;;;;;;;;;;;;16.47;100.00;101520.19;5114921;28;19937;-40
2022/08/21 04:35:14;;;;;;;;;;;;;;;16.42;100.00;101525.97;5115583;28;20352;-38
2022/08/21 04:37:41;;;;;;;;;;;;;;;16.38;100.00;101524.13;5115431;28;19924;-32
2022/08/21 04:40:10;;;;;;;;;;;;;;;16.34;100.00;101518.31;5114728;28;19931;-32
2022/08/21 04:42:42;;;;;;;;;;;;;;;16.32;100.00;101526.25;5115806;28;20018;-38
2022/08/21 04:45:15;;;;;;;;;;;;;;;16.32;100.00;101525.41;5114680;28;20288;-36
2022/08/21 04:47:43;;;;;;;;;;;;;;;16.30;100.00;101525.72;5115254;28;19970;-33
2022/08/21 04:50:19;;;;;;;;;;;;;;;16.31;100.00;101526.56;5113984;28;20395;-41
2022/08/21 04:53:03;;;;;;;;;;;;;;;16.31;100.00;101530.22;5114664;28;20015;-36
2022/08/21 04:55:31;;;;;;;;;;;;;;;16.30;100.00;101522.91;5114961;28;19925;-32
2022/08/21 04:57:59;;;;;;;;;;;;;;;16.28;100.00;101532.84;5114693;28;19927;-35
2022/08/21 05:00:28;;;;;;;;;;;;;;;16.25;100.00;101525.84;5114115;28;20192;-31
2022/08/21 05:02:58;;;;;;;;;;;;;;;16.23;100.00;101528.16;5114142;28;19924;-35
2022/08/21 05:05:28;;;;;;;;;;;;;;;16.22;100.00;101532.13;5104086;28;19932;-39
2022/08/21 05:07:57;;;;;;;;;;;;;;;16.25;100.00;101536.28;5112965;28;19924;-32
2022/08/21 05:10:25;;;;;;;;;;;;;;;16.26;100.00;101550.06;5114155;28;19930;-39
2022/08/21 05:12:53;;;;;;;;;;;;;;;16.29;100.00;101546.59;5114300;28;19932;-35
2022/08/21 05:15:20;;;;;;;;;;;;;;;16.33;100.00;101550.44;5113775;28;19973;-32
2022/08/21 05:17:50;;;;;;;;;;;;;;;16.37;100.00;101550.63;5113876;28;19928;-33
2022/08/21 05:20:27;;;;;;;;;;;;;;;16.39;100.00;101551.97;5110174;28;19970;-31
2022/08/21 05:22:55;;;;;;;;;;;;;;;16.44;100.00;101548.19;5114115;28;19932;-41
2022/08/21 05:25:23;;;;;;;;;;;;;;;16.48;100.00;101547.22;5113855;28;19988;-33
2022/08/21 05:27:50;;;;;;;;;;;;;;;16.54;100.00;101545.09;5113429;28;19927;-40
2022/08/21 05:30:19;;;;;;;;;;;;;;;16.62;100.00;101546.28;5114537;28;19950;-32
2022/08/21 05:32:47;;;;;;;;;;;;;;;16.69;100.00;101547.53;5114511;28;19924;-37
2022/08/21 05:35:16;;;;;;;;;;;;;;;16.78;100.00;101545.59;5112823;28;20300;-32
2022/08/21 05:37:43;;;;;;;;;;;;;;;16.85;100.00;101550.75;5114350;28;19923;-32
2022/08/21 05:40:11;;;;;;;;;;;;;;;16.94;100.00;101539.53;5114617;28;19924;-32
2022/08/21 05:42:49;;;;;;;;;;;;;;;17.09;100.00;101539.06;5113192;28;20434;-33
2022/08/21 05:45:23;;;;;;;;;;;;;;;17.23;100.00;101539.78;5114054;27;19996;-32
2022/08/21 05:48:11;;;;;;;;;;;;;;;17.37;100.00;101542.50;5108310;28;20373;-32
2022/08/21 05:50:40;;;;;;;;;;;;;;;17.49;100.00;101546.31;5113174;28;19930;-32
2022/08/21 05:53:09;;;;;;;;;;;;;;;17.62;100.00;101543.66;5114480;28;19924;-35
2022/08/21 05:55:37;;;;;;;;;;;;;;;17.72;100.00;101541.41;5113187;28;20047;-37
2022/08/21 05:58:12;;;;;;;;;;;;;;;17.86;100.00;101544.06;5113484;28;20349;-36
2022/08/21 06:00:39;;;;;;;;;;;;;;;17.99;100.00;101545.03;5113648;28;19924;-31
2022/08/21 06:03:11;;;;;;;;;;;;;;;18.08;100.00;101543.06;5112953;28;19924;-32
2022/08/21 06:05:40;;;;;;;;;;;;;;;18.21;100.00;101553.34;5113165;28;19947;-32
2022/08/21 06:08:07;;;;;;;;;;;;;;;18.32;100.00;101548.19;5113412;28;19923;-34
2022/08/21 06:10:35;;;;;;;;;;;;;;;18.44;100.00;101540.69;5113345;28;19923;-34
2022/08/21 06:13:03;;;;;;;;;;;;;;;18.56;100.00;101542.81;5113068;27;19925;-34
2022/08/21 06:15:30;;;;;;;;;;;;;;;18.62;100.00;101541.50;5112985;28;19924;-32
2022/08/21 06:17:58;;;;;;;;;;;;;;;18.69;100.00;101541.81;5112397;28;19935;-38
2022/08/21 06:20:26;;;;;;;;;;;;;;;18.74;100.00;101541.63;5112773;28;19931;-36
2022/08/21 06:22:55;;;;;;;;;;;;;;;18.77;100.00;101555.09;5112887;28;19928;-35
2022/08/21 06:25:23;;;;;;;;;;;;;;;18.78;100.00;101548.28;5112363;28;20475;-31
2022/08/21 06:27:51;;;;;;;;;;;;;;;18.80;100.00;101557.22;5112735;28;19923;-34
2022/08/21 06:30:19;;;;;;;;;;;;;;;18.84;100.00;101560.22;5112428;28;19923;-39
2022/08/21 06:32:46;;;;;;;;;;;;;;;18.86;100.00;101553.06;5112388;28;19931;-32
2022/08/21 06:35:14;;;;;;;;;;;;;;;18.91;100.00;101554.88;5112610;28;19931;-37
2022/08/21 06:37:41;;;;;;;;;;;;;;;18.98;100.00;101554.38;5112652;27;19930;-31
2022/08/21 06:40:11;;;;;;;;;;;;;;;19.13;100.00;101550.97;5113182;28;19931;-35
2022/08/21 06:42:39;;;;;;;;;;;;;;;19.40;100.00;101552.44;5109903;28;20464;-32
2022/08/21 06:45:09;;;;;;;;;;;;;;;19.74;100.00;101554.28;5112557;28;19966;-32
2022/08/21 06:47:37;;;;;;;;;;;;;;;20.10;100.00;101559.31;5112750;28;19930;-36
2022/08/21 06:50:07;;;;;;;;;;;;;;;20.51;100.00;101549.94;5112797;28;19928;-32
2022/08/21 06:52:34;;;;;;;;;;;;;;;20.92;100.00;101548.97;5112126;28;19928;-32
2022/08/21 06:55:02;;;;;;;;;;;;;;;21.35;100.00;101556.94;5112656;28;19923;-37
2022/08/21 06:57:31;;;;;;;;;;;;;;;21.87;100.00;101559.81;5112530;28;19924;-33
2022/08/21 06:59:59;;;;;;;;;;;;;;;22.43;100.00;101557.03;5112165;28;19923;-33
2022/08/21 07:02:26;;;;;;;;;;;;;;;22.91;100.00;101555.97;5112361;28;19924;-32
2022/08/21 07:04:54;;;;;;;;;;;;;;;23.41;99.24;101557.22;5112273;28;19935;-32
2022/08/21 07:07:21;;;;;;;;;;;;;;;23.75;93.84;101549.09;5111782;28;19958;-35
2022/08/21 07:09:49;;;;;;;;;;;;;;;24.19;93.38;101559.03;5112968;28;19930;-33
2022/08/21 07:12:17;;;;;;;;;;;;;;;24.69;89.68;101560.06;5101126;28;19924;-32
2022/08/21 07:14:45;;;;;;;;;;;;;;;25.20;84.05;101559.78;5111125;28;19928;-34
2022/08/21 07:17:13;;;;;;;;;;;;;;;25.61;75.29;101555.13;5112498;28;20384;-36
2022/08/21 07:19:41;;;;;;;;;;;;;;;25.99;79.25;101559.81;5111656;28;20405;-33
2022/08/21 07:22:08;;;;;;;;;;;;;;;26.54;75.98;101563.00;5110894;28;19950;-37
2022/08/21 07:24:36;;;;;;;;;;;;;;;26.88;72.97;101566.63;5111077;28;19924;-34
2022/08/21 07:27:04;;;;;;;;;;;;;;;27.07;69.25;101564.41;5110034;28;19928;-38
2022/08/21 07:29:36;;;;;;;;;;;;;;;27.35;66.79;101565.88;5111105;28;19924;-34
2022/08/21 07:32:06;;;;;;;;;;;;;;;27.57;61.45;101561.13;5116145;28;19935;-33
2022/08/21 07:34:33;;;;;;;;;;;;;;;27.60;61.50;101566.06;5114655;27;19931;-39
2022/08/21 07:37:01;;;;;;;;;;;;;;;27.77;63.17;101569.09;5116233;28;19924;-32
2022/08/21 07:39:36;;;;;;;;;;;;;;;28.27;59.22;101565.69;5114503;28;19924;-33
2022/08/21 07:42:04;;;;;;;;;;;;;;;28.65;57.64;101573.59;5114690;28;19931;-40
2022/08/21 07:44:35;;;;;;;;;;;;;;;28.99;58.40;101568.34;5116297;28;19957;-39
2022/08/21 07:47:02;;;;;;;;;;;;;;;29.40;55.12;101571.69;5115949;28;20308;-40
2022/08/21 07:49:31;;;;;;;;;;;;;;;29.54;47.81;101570.88;5114880;28;19930;-33
2022/08/21 07:51:59;;;;;;;;;;;;;;;29.62;51.17;101563.06;5116010;28;19923;-34
2022/08/21 07:54:27;;;;;;;;;;;;;;;29.64;43.79;101566.34;5115689;28;19924;-34
2022/08/21 07:57:01;;;;;;;;;;;;;;;29.56;50.10;101568.41;5115257;28;19924;-34
2022/08/21 07:59:29;;;;;;;;;;;;;;;29.87;48.65;101560.13;5115431;28;20388;-35
2022/08/21 08:01:57;;;;;;;;;;;;;;;30.33;49.75;101568.66;5114981;28;19928;-35
2022/08/21 08:04:25;;;;;;;;;;;;;;;30.73;47.58;101570.13;5115686;28;19965;-34
2022/08/21 08:06:54;;;;;;;;;;;;;;;30.95;47.80;101562.16;5115903;28;19923;-38
2022/08/21 08:09:22;;;;;;;;;;;;;;;31.23;48.64;101559.06;5115332;28;20311;-37
2022/08/21 08:11:49;;;;;;;;;;;;;;;31.54;50.21;101557.16;5115526;28;20380;-43
2022/08/21 08:14:17;;;;;;;;;;;;;;;31.74;45.87;101569.75;5115791;28;20369;-38
2022/08/21 08:16:45;;;;;;;;;;;;;;;31.66;47.06;101564.47;5115317;28;20034;-38
2022/08/21 08:19:12;;;;;;;;;;;;;;;31.70;47.83;101560.31;5114108;28;19923;-33
2022/08/21 08:21:40;;;;;;;;;;;;;;;31.78;46.84;101570.50;5113397;28;19930;-35
2022/08/21 08:24:09;;;;;;;;;;;;;;;32.03;46.35;101575.22;5114044;28;20012;-36
2022/08/21 08:26:46;;;;;;;;;;;;;;;32.25;41.25;101565.06;5111491;28;19989;-32
2022/08/21 08:29:20;;;;;;;;;;;;;;;32.53;42.46;101572.56;5115073;28;20395;-35
2022/08/21 08:31:48;;;;;;;;;;;;;;;32.65;39.73;101565.34;5114916;28;19927;-36
2022/08/21 08:34:15;;;;;;;;;;;;;;;32.64;38.44;101569.50;5115561;28;19927;-34
2022/08/21 08:36:52;;;;;;;;;;;;;;;32.53;41.53;101561.00;5113189;28;19924;-34
2022/08/21 08:39:24;;;;;;;;;;;;;;;32.69;41.84;101563.25;5114557;28;20034;-33
2022/08/21 08:42:00;;;;;;;;;;;;;;;32.89;41.14;101560.50;5114928;28;19934;-33
2022/08/21 08:44:28;;;;;;;;;;;;;;;32.89;39.38;101561.31;5113329;28;19927;-38
2022/08/21 08:46:58;;;;;;;;;;;;;;;32.84;41.52;101561.81;5114792;28;19924;-37
2022/08/21 08:49:31;;;;;;;;;;;;;;;32.93;40.38;101567.06;5115532;28;19924;-43
2022/08/21 08:52:03;;;;;;;;;;;;;;;32.96;39.22;101564.13;5111860;28;19934;-37
2022/08/21 08:54:34;;;;;;;;;;;;;;;33.04;41.42;101561.91;5115022;28;19924;-39
2022/08/21 08:57:03;;;;;;;;;;;;;;;33.10;39.29;101563.06;5114818;28;19937;-36
2022/08/21 08:59:40;;;;;;;;;;;;;;;32.92;38.05;101560.44;5108451;28;19930;-33
2022/08/21 09:02:11;;;;;;;;;;;;;;;32.75;39.98;101561.53;5114472;28;20018;-39
2022/08/21 09:04:39;;;;;;;;;;;;;;;32.70;38.44;101568.59;5114787;28;19990;-36
2022/08/21 09:07:13;;;;;;;;;;;;;;;32.52;40.91;101565.97;5113592;28;19931;-42
2022/08/21 09:09:59;;;;;;;;;;;;;;;32.71;41.18;101570.22;5114820;28;19930;-35
2022/08/21 09:12:33;;;;;;;;;;;;;;;32.94;39.62;101562.91;5112669;28;19931;-34
2022/08/21 09:15:07;;;;;;;;;;;;;;;32.76;40.32;101571.84;5109222;28;19924;-37
2022/08/21 09:17:40;;;;;;;;;;;;;;;32.60;40.49;101569.56;5114514;27;19928;-40
2022/08/21 09:20:17;;;;;;;;;;;;;;;32.27;41.44;101571.25;5113919;28;19923;-40
2022/08/21 09:22:51;;;;;;;;;;;;;;;32.01;40.85;101571.94;5114534;28;19931;-40
2022/08/21 09:25:22;;;;;;;;;;;;;;;31.74;42.46;101578.41;5114177;28;20411;-40
2022/08/21 09:27:50;;;;;;;;;;;;;;;31.47;41.86;101574.53;5113839;28;20489;-38
2022/08/21 09:30:20;;;;;;;;;;;;;;;31.01;43.99;101574.84;5114104;28;20027;-41
2022/08/21 09:32:48;;;;;;;;;;;;;;;31.06;44.27;101583.88;5113986;28;19928;-42
2022/08/21 09:35:17;;;;;;;;;;;;;;;31.18;44.77;101585.47;5113587;28;19935;-42
2022/08/21 09:37:50;;;;;;;;;;;;;;;31.32;43.24;101581.66;5114580;28;19951;-41
2022/08/21 09:40:24;;;;;;;;;;;;;;;31.34;42.54;101579.19;5114015;28;19924;-33
2022/08/21 09:42:55;;;;;;;;;;;;;;;31.52;42.28;101591.38;5114442;28;19928;-32
2022/08/21 09:45:23;;;;;;;;;;;;;;;31.48;40.21;101574.09;5114244;28;19927;-39
2022/08/21 09:47:50;;;;;;;;;;;;;;;31.40;42.71;101578.28;5112917;28;19935;-33
2022/08/21 09:50:20;;;;;;;;;;;;;;;31.15;42.71;101578.50;5114331;28;19928;-33
2022/08/21 09:52:50;;;;;;;;;;;;;;;31.18;44.79;101580.50;5113800;28;19935;-33
2022/08/21 09:58:14;;;;;;;;;;;;;;;31.76;42.33;101586.66;5106570;28;20460;-33
2022/08/21 10:00:43;;;;;;;;;;;;;;;31.70;40.99;101588.34;5112471;28;20308;-34
2022/08/21 10:03:12;;;;;;;;;;;;;;;31.64;41.26;101590.03;5111984;28;20380;-33
2022/08/21 10:05:41;;;;;;;;;;;;;;;31.85;41.79;101596.44;5111864;28;19931;-36
2022/08/21 10:08:17;;;;;;;;;;;;;;;31.92;41.75;101597.63;5112981;28;19930;-33
2022/08/21 10:10:51;;;;;;;;;;;;;;;32.07;41.96;101594.13;5112482;28;19930;-39
2022/08/21 10:13:29;;;;;;;;;;;;;;;32.28;40.35;101589.38;5103371;28;19931;-33
2022/08/21 10:16:01;;;;;;;;;;;;;;;32.05;37.10;101587.97;5112504;28;19934;-34
2022/08/21 10:18:35;;;;;;;;;;;;;;;31.61;40.07;101597.47;5113356;28;19930;-35
2022/08/21 10:21:05;;;;;;;;;;;;;;;31.33;41.61;101594.84;5112378;28;19935;-41
2022/08/21 10:23:45;;;;;;;;;;;;;;;31.22;42.47;101596.97;5100631;28;20411;-34
2022/08/21 10:26:21;;;;;;;;;;;;;;;31.27;44.86;101610.94;5102794;28;20292;-31
2022/08/21 10:28:56;;;;;;;;;;;;;;;31.15;43.33;101604.47;5102462;28;19923;-37
2022/08/21 10:31:40;;;;;;;;;;;;;;;30.70;41.65;101588.25;5101980;28;20031;-39
2022/08/21 10:34:15;;;;;;;;;;;;;;;30.56;43.26;101599.84;5103464;28;19923;-30
2022/08/21 10:36:50;;;;;;;;;;;;;;;30.85;43.14;101595.56;5112227;28;20032;-34
2022/08/21 10:39:21;;;;;;;;;;;;;;;31.22;42.48;101597.78;5102553;28;19928;-33
2022/08/21 10:42:18;;;;;;;;;;;;;;;31.26;39.23;101592.81;5112855;28;20030;-34
2022/08/21 10:44:49;;;;;;;;;;;;;;;31.03;43.26;101590.50;5112300;28;19928;-38
2022/08/21 10:47:21;;;;;;;;;;;;;;;31.11;42.28;101597.88;5112423;28;19931;-31
2022/08/21 10:49:54;;;;;;;;;;;;;;;31.01;40.69;101595.03;5112989;28;20414;-37
2022/08/21 10:52:34;;;;;;;;;;;;;;;30.74;41.37;101589.88;5111620;28;19924;-33
2022/08/21 10:55:04;;;;;;;;;;;;;;;30.57;41.60;101590.78;5111616;27;19938;-37
2022/08/21 10:57:37;;;;;;;;;;;;;;;30.33;42.01;101586.75;5111691;28;19928;-34
2022/08/21 11:00:08;;;;;;;;;;;;;;;30.17;41.21;101589.28;5111859;28;19924;-30
2022/08/21 11:02:38;;;;;;;;;;;;;;;29.99;43.30;101586.44;5112455;28;19924;-30
2022/08/21 11:05:08;;;;;;;;;;;;;;;29.90;43.31;101593.84;5109848;28;19927;-31
2022/08/21 11:07:37;;;;;;;;;;;;;;;29.88;42.27;101607.81;5112902;28;19924;-40
2022/08/21 11:10:10;;;;;;;;;;;;;;;29.98;44.57;101602.06;5112685;28;19924;-32
2022/08/21 11:12:42;;;;;;;;;;;;;;;30.01;43.53;101609.03;5100972;28;19938;-35
2022/08/21 11:15:19;;;;;;;;;;;;;;;30.07;44.53;101601.63;5112845;28;19924;-34
2022/08/21 11:18:01;;;;;;;;;;;;;;;30.39;43.57;101602.34;5102816;28;19977;-32
2022/08/21 11:20:29;;;;;;;;;;;;;;;30.41;40.42;101611.38;5112004;28;20294;-36
2022/08/21 11:22:59;;;;;;;;;;;;;;;30.19;41.63;101609.00;5112453;28;20312;-36
2022/08/21 11:25:34;;;;;;;;;;;;;;;30.22;43.11;101614.75;5112677;28;19947;-42
2022/08/21 11:28:07;;;;;;;;;;;;;;;30.45;43.63;101617.97;5111773;28;20010;-39
2022/08/21 11:30:48;;;;;;;;;;;;;;;30.77;42.82;101619.91;5112880;28;19977;-31
2022/08/21 11:33:26;;;;;;;;;;;;;;;30.66;41.56;101613.38;5111952;28;19928;-32
2022/08/21 11:36:03;;;;;;;;;;;;;;;30.69;42.73;101621.19;5112490;28;19923;-39
2022/08/21 11:38:35;;;;;;;;;;;;;;;30.43;42.43;101620.44;5101494;28;19924;-32
2022/08/21 11:41:20;;;;;;;;;;;;;;;30.17;42.37;101623.00;5112079;28;19924;-38
2022/08/21 11:43:52;;;;;;;;;;;;;;;30.22;43.85;101616.81;5102338;28;19935;-35
2022/08/21 11:46:26;;;;;;;;;;;;;;;30.39;44.20;101616.75;5112538;28;20011;-33
2022/08/21 11:49:00;;;;;;;;;;;;;;;30.42;43.16;101613.03;5101124;28;20391;-38
2022/08/21 11:51:31;;;;;;;;;;;;;;;30.21;41.32;101612.28;5112426;28;20423;-32
2022/08/21 11:54:02;;;;;;;;;;;;;;;30.13;43.20;101609.44;5112191;28;19980;-37
2022/08/21 11:56:36;;;;;;;;;;;;;;;30.07;43.06;101616.03;5112061;28;20015;-31
2022/08/21 11:59:07;;;;;;;;;;;;;;;30.00;42.44;101619.75;5112654;28;19931;-35
2022/08/21 12:01:37;;;;;;;;;;;;;;;30.00;42.81;101613.16;5111709;28;19927;-34
2022/08/21 12:04:08;;;;;;;;;;;;;;;29.95;42.68;101630.84;5112362;28;20401;-34
2022/08/21 12:06:37;;;;;;;;;;;;;;;29.70;41.69;101628.00;5112141;28;19923;-31
2022/08/21 12:09:06;;;;;;;;;;;;;;;29.36;42.68;101627.56;5106798;28;19923;-34
2022/08/21 12:11:46;;;;;;;;;;;;;;;29.35;44.35;101620.16;5112021;28;19927;-39
2022/08/21 12:14:16;;;;;;;;;;;;;;;29.31;44.98;101622.22;5112609;28;19923;-34
2022/08/21 12:16:46;;;;;;;;;;;;;;;29.39;44.84;101623.84;5113503;28;19930;-39
2022/08/21 12:19:14;;;;;;;;;;;;;;;29.56;44.62;101628.81;5114866;28;19931;-34
2022/08/21 12:21:49;;;;;;;;;;;;;;;29.64;44.79;101630.44;5115896;28;19923;-32
2022/08/21 12:24:19;;;;;;;;;;;;;;;29.64;42.44;101624.69;5114931;28;19927;-34
2022/08/21 12:26:51;;;;;;;;;;;;;;;29.63;42.84;101623.06;5116208;28;20010;-30
2022/08/21 12:29:24;;;;;;;;;;;;;;;29.57;43.58;101616.09;5115200;28;19924;-30
2022/08/21 12:31:54;;;;;;;;;;;;;;;29.58;44.58;101614.81;5115842;28;19924;-30
2022/08/21 12:34:24;;;;;;;;;;;;;;;29.49;42.84;101611.56;5113370;28;19934;-32
2022/08/21 12:36:56;;;;;;;;;;;;;;;29.45;45.22;101613.59;5114569;28;19935;-31
2022/08/21 12:39:25;;;;;;;;;;;;;;;29.55;44.40;101624.31;5115604;28;19923;-31
2022/08/21 12:41:56;;;;;;;;;;;;;;;29.59;44.85;101616.47;5115642;28;19949;-31
2022/08/21 12:44:34;;;;;;;;;;;;;;;29.53;43.72;101623.06;5114464;28;19978;-32
2022/08/21 12:47:04;;;;;;;;;;;;;;;29.42;44.23;101620.19;5114907;28;19930;-34
2022/08/21 12:49:33;;;;;;;;;;;;;;;29.32;44.28;101629.59;5115230;28;19924;-36